sensor_id;sensor_type;location;lat;lon;timestamp;temperature;humidity
24158;DHT22;12316;50.904;4.200;2022-09-19T00:01:37;10.60;99.90
24158;DHT22;12316;50.904;4.200;2022-09-19T00:04:19;10.50;99.90
24158;DHT22;12316;50.904;4.200;2022-09-19T00:06:47;10.60;99.90
24158;DHT22;12316;50.904;4.200;2022-09-19T00:09:16;10.60;99.90
24158;DHT22;12316;50.904;4.200;2022-09-19T00:11:44;10.50;99.90
24158;DHT22;12316;50.904;4.200;2022-09-19T00:14:12;10.50;99.90
24158;DHT22;12316;50.904;4.200;2022-09-19T00:16:43;10.50;99.90
24158;DHT22;12316;50.904;4.200;2022-09-19T00:19:16;10.50;99.90
24158;DHT22;12316;50.904;4.200;2022-09-19T00:21:44;10.50;99.90
24158;DHT22;12316;50.904;4.200;2022-09-19T00:24:16;10.50;99.90
24158;DHT22;12316;50.904;4.200;2022-09-19T00:27:01;10.50;99.90
24158;DHT22;12316;50.904;4.200;2022-09-19T00:29:31;10.60;99.90
24158;DHT22;12316;50.904;4.200;2022-09-19T00:31:59;10.50;99.90
24158;DHT22;12316;50.904;4.200;2022-09-19T00:34:24;10.60;99.90
24158;DHT22;12316;50.904;4.200;2022-09-19T00:36:51;10.60;99.90
24158;DHT22;12316;50.904;4.200;2022-09-19T00:39:18;10.50;99.90
24158;DHT22;12316;50.904;4.200;2022-09-19T00:41:46;10.50;99.90
24158;DHT22;12316;50.904;4.200;2022-09-19T00:46:49;10.70;99.90
24158;DHT22;12316;50.904;4.200;2022-09-19T00:49:15;10.70;99.90
24158;DHT22;12316;50.904;4.200;2022-09-19T00:51:48;10.80;99.90
24158;DHT22;12316;50.904;4.200;2022-09-19T00:54:17;10.90;99.90
24158;DHT22;12316;50.904;4.200;2022-09-19T00:56:52;11.00;99.90
24158;DHT22;12316;50.904;4.200;2022-09-19T00:59:20;11.00;99.90
24158;DHT22;12316;50.904;4.200;2022-09-19T01:01:49;11.10;99.90
24158;DHT22;12316;50.904;4.200;2022-09-19T01:04:19;11.10;99.90
24158;DHT22;12316;50.904;4.200;2022-09-19T01:15:52;11.40;99.90
24158;DHT22;12316;50.904;4.200;2022-09-19T01:17:53;11.50;99.90
24158;DHT22;12316;50.904;4.200;2022-09-19T01:29:09;11.50;99.90
24158;DHT22;12316;50.904;4.200;2022-09-19T01:31:40;11.60;99.90
24158;DHT22;12316;50.904;4.200;2022-09-19T01:36:42;11.60;99.90
24158;DHT22;12316;50.904;4.200;2022-09-19T01:39:10;11.50;99.90
24158;DHT22;12316;50.904;4.200;2022-09-19T01:41:36;11.50;99.90
24158;DHT22;12316;50.904;4.200;2022-09-19T01:44:05;11.60;99.90
24158;DHT22;12316;50.904;4.200;2022-09-19T02:00:11;11.60;99.90
24158;DHT22;12316;50.904;4.200;2022-09-19T02:02:59;11.60;99.90
24158;DHT22;12316;50.904;4.200;2022-09-19T02:08:22;11.50;99.90
24158;DHT22;12316;50.904;4.200;2022-09-19T02:10:57;11.40;99.90
24158;DHT22;12316;50.904;4.200;2022-09-19T02:13:27;11.30;99.90
24158;DHT22;12316;50.904;4.200;2022-09-19T02:16:01;11.20;99.90
24158;DHT22;12316;50.904;4.200;2022-09-19T02:18:37;11.10;99.90
24158;DHT22;12316;50.904;4.200;2022-09-19T02:21:07;11.10;99.90
24158;DHT22;12316;50.904;4.200;2022-09-19T02:23:40;11.10;99.90
24158;DHT22;12316;50.904;4.200;2022-09-19T02:26:15;11.10;99.90
24158;DHT22;12316;50.904;4.200;2022-09-19T02:28:44;11.00;99.90
24158;DHT22;12316;50.904;4.200;2022-09-19T02:31:11;11.00;99.90
24158;DHT22;12316;50.904;4.200;2022-09-19T02:33:39;10.90;99.90
24158;DHT22;12316;50.904;4.200;2022-09-19T02:36:41;10.80;99.90
24158;DHT22;12316;50.904;4.200;2022-09-19T02:39:13;10.70;99.90
24158;DHT22;12316;50.904;4.200;2022-09-19T02:41:49;10.60;99.90
24158;DHT22;12316;50.904;4.200;2022-09-19T02:44:36;10.60;99.90
24158;DHT22;12316;50.904;4.200;2022-09-19T02:52:18;10.50;99.90
24158;DHT22;12316;50.904;4.200;2022-09-19T02:54:53;10.40;99.90
24158;DHT22;12316;50.904;4.200;2022-09-19T02:57:21;10.40;99.90
24158;DHT22;12316;50.904;4.200;2022-09-19T02:59:49;10.30;99.90
24158;DHT22;12316;50.904;4.200;2022-09-19T03:02:22;10.30;99.90
24158;DHT22;12316;50.904;4.200;2022-09-19T03:04:56;10.20;99.90
24158;DHT22;12316;50.904;4.200;2022-09-19T03:07:28;10.30;99.90
24158;DHT22;12316;50.904;4.200;2022-09-19T03:10:14;10.20;99.90
24158;DHT22;12316;50.904;4.200;2022-09-19T03:12:51;10.10;99.90
24158;DHT22;12316;50.904;4.200;2022-09-19T03:15:23;10.20;99.90
24158;DHT22;12316;50.904;4.200;2022-09-19T03:17:52;10.10;99.90
24158;DHT22;12316;50.904;4.200;2022-09-19T03:20:20;10.10;99.90
24158;DHT22;12316;50.904;4.200;2022-09-19T03:22:49;10.10;99.90
24158;DHT22;12316;50.904;4.200;2022-09-19T03:25:15;10.10;99.90
24158;DHT22;12316;50.904;4.200;2022-09-19T03:27:42;10.10;99.90
24158;DHT22;12316;50.904;4.200;2022-09-19T03:30:11;10.00;99.90
24158;DHT22;12316;50.904;4.200;2022-09-19T03:32:37;10.00;99.90
24158;DHT22;12316;50.904;4.200;2022-09-19T03:35:05;10.00;99.90
24158;DHT22;12316;50.904;4.200;2022-09-19T03:37:31;10.00;99.90
24158;DHT22;12316;50.904;4.200;2022-09-19T03:39:58;10.00;99.90
24158;DHT22;12316;50.904;4.200;2022-09-19T03:42:27;9.90;99.90
24158;DHT22;12316;50.904;4.200;2022-09-19T03:44:54;9.90;99.90
24158;DHT22;12316;50.904;4.200;2022-09-19T03:47:20;9.90;99.90
24158;DHT22;12316;50.904;4.200;2022-09-19T03:49:47;9.80;99.90
24158;DHT22;12316;50.904;4.200;2022-09-19T03:52:16;9.90;99.90
24158;DHT22;12316;50.904;4.200;2022-09-19T03:54:41;9.80;99.90
24158;DHT22;12316;50.904;4.200;2022-09-19T03:57:07;9.80;99.90
24158;DHT22;12316;50.904;4.200;2022-09-19T03:59:32;9.80;99.90
24158;DHT22;12316;50.904;4.200;2022-09-19T04:01:59;9.80;99.90
24158;DHT22;12316;50.904;4.200;2022-09-19T04:04:24;9.70;99.90
24158;DHT22;12316;50.904;4.200;2022-09-19T04:06:50;9.70;99.90
24158;DHT22;12316;50.904;4.200;2022-09-19T04:09:16;9.70;99.90
24158;DHT22;12316;50.904;4.200;2022-09-19T04:11:42;9.70;99.90
24158;DHT22;12316;50.904;4.200;2022-09-19T04:14:08;9.70;99.90
24158;DHT22;12316;50.904;4.200;2022-09-19T04:16:35;9.70;99.90
24158;DHT22;12316;50.904;4.200;2022-09-19T04:19:00;9.70;99.90
24158;DHT22;12316;50.904;4.200;2022-09-19T04:21:27;9.70;99.90
24158;DHT22;12316;50.904;4.200;2022-09-19T04:23:52;9.80;99.90
24158;DHT22;12316;50.904;4.200;2022-09-19T04:26:20;9.80;99.90
24158;DHT22;12316;50.904;4.200;2022-09-19T04:28:46;9.70;99.90
24158;DHT22;12316;50.904;4.200;2022-09-19T04:31:12;9.70;99.90
24158;DHT22;12316;50.904;4.200;2022-09-19T04:33:39;9.80;99.90
24158;DHT22;12316;50.904;4.200;2022-09-19T04:36:06;9.80;99.90
24158;DHT22;12316;50.904;4.200;2022-09-19T04:38:32;9.80;99.90
24158;DHT22;12316;50.904;4.200;2022-09-19T04:40:59;9.70;99.90
24158;DHT22;12316;50.904;4.200;2022-09-19T04:43:26;9.70;99.90
24158;DHT22;12316;50.904;4.200;2022-09-19T04:45:53;9.70;99.90
24158;DHT22;12316;50.904;4.200;2022-09-19T04:48:19;9.70;99.90
24158;DHT22;12316;50.904;4.200;2022-09-19T04:50:47;9.70;99.90
24158;DHT22;12316;50.904;4.200;2022-09-19T04:53:17;9.80;99.90
24158;DHT22;12316;50.904;4.200;2022-09-19T04:55:47;9.80;99.90
24158;DHT22;12316;50.904;4.200;2022-09-19T04:58:14;9.80;99.90
24158;DHT22;12316;50.904;4.200;2022-09-19T05:00:43;9.80;99.90
24158;DHT22;12316;50.904;4.200;2022-09-19T05:03:15;9.80;99.90
24158;DHT22;12316;50.904;4.200;2022-09-19T05:05:44;9.80;99.90
24158;DHT22;12316;50.904;4.200;2022-09-19T05:08:11;9.90;99.90
24158;DHT22;12316;50.904;4.200;2022-09-19T05:10:38;9.90;99.90
24158;DHT22;12316;50.904;4.200;2022-09-19T05:13:03;9.90;99.90
24158;DHT22;12316;50.904;4.200;2022-09-19T05:15:30;9.90;99.90
24158;DHT22;12316;50.904;4.200;2022-09-19T05:17:56;10.00;99.90
24158;DHT22;12316;50.904;4.200;2022-09-19T05:20:23;9.90;99.90
24158;DHT22;12316;50.904;4.200;2022-09-19T05:22:54;9.90;99.90
24158;DHT22;12316;50.904;4.200;2022-09-19T05:25:22;9.90;99.90
24158;DHT22;12316;50.904;4.200;2022-09-19T05:27:47;9.90;99.90
24158;DHT22;12316;50.904;4.200;2022-09-19T05:30:13;9.80;99.90
24158;DHT22;12316;50.904;4.200;2022-09-19T05:32:39;9.80;99.90
24158;DHT22;12316;50.904;4.200;2022-09-19T05:35:11;9.80;99.90
24158;DHT22;12316;50.904;4.200;2022-09-19T05:37:41;9.80;99.90
24158;DHT22;12316;50.904;4.200;2022-09-19T05:40:07;9.90;99.90
24158;DHT22;12316;50.904;4.200;2022-09-19T05:42:33;9.90;99.90
24158;DHT22;12316;50.904;4.200;2022-09-19T05:45:00;9.90;99.90
24158;DHT22;12316;50.904;4.200;2022-09-19T05:47:25;10.00;99.90
24158;DHT22;12316;50.904;4.200;2022-09-19T05:49:51;10.00;99.90
24158;DHT22;12316;50.904;4.200;2022-09-19T05:52:17;10.00;99.90
24158;DHT22;12316;50.904;4.200;2022-09-19T05:55:02;10.10;99.90
24158;DHT22;12316;50.904;4.200;2022-09-19T05:57:27;10.20;99.90
24158;DHT22;12316;50.904;4.200;2022-09-19T05:59:53;10.40;99.90
24158;DHT22;12316;50.904;4.200;2022-09-19T06:02:19;10.50;99.90
24158;DHT22;12316;50.904;4.200;2022-09-19T06:04:45;10.70;99.90
24158;DHT22;12316;50.904;4.200;2022-09-19T06:07:11;10.80;99.90
24158;DHT22;12316;50.904;4.200;2022-09-19T06:09:37;11.00;99.90
24158;DHT22;12316;50.904;4.200;2022-09-19T06:12:03;11.10;99.90
24158;DHT22;12316;50.904;4.200;2022-09-19T06:14:28;11.30;99.90
24158;DHT22;12316;50.904;4.200;2022-09-19T06:16:54;11.30;99.90
24158;DHT22;12316;50.904;4.200;2022-09-19T06:19:20;11.50;99.90
24158;DHT22;12316;50.904;4.200;2022-09-19T06:21:45;11.60;99.90
24158;DHT22;12316;50.904;4.200;2022-09-19T06:24:11;11.60;99.90
24158;DHT22;12316;50.904;4.200;2022-09-19T06:26:36;11.70;99.90
24158;DHT22;12316;50.904;4.200;2022-09-19T06:29:03;11.80;99.90
24158;DHT22;12316;50.904;4.200;2022-09-19T06:31:29;11.90;99.90
24158;DHT22;12316;50.904;4.200;2022-09-19T06:33:56;11.90;99.90
24158;DHT22;12316;50.904;4.200;2022-09-19T06:36:21;12.10;99.90
24158;DHT22;12316;50.904;4.200;2022-09-19T06:38:47;12.10;99.90
24158;DHT22;12316;50.904;4.200;2022-09-19T06:41:12;12.40;99.90
24158;DHT22;12316;50.904;4.200;2022-09-19T06:43:38;12.50;99.90
24158;DHT22;12316;50.904;4.200;2022-09-19T06:46:05;12.60;99.90
24158;DHT22;12316;50.904;4.200;2022-09-19T06:48:31;12.80;99.90
24158;DHT22;12316;50.904;4.200;2022-09-19T06:50:57;12.90;99.90
24158;DHT22;12316;50.904;4.200;2022-09-19T06:53:23;13.10;99.90
24158;DHT22;12316;50.904;4.200;2022-09-19T06:55:50;13.10;99.90
24158;DHT22;12316;50.904;4.200;2022-09-19T06:58:16;13.20;99.90
24158;DHT22;12316;50.904;4.200;2022-09-19T07:00:42;13.10;99.90
24158;DHT22;12316;50.904;4.200;2022-09-19T07:03:11;13.10;99.90
24158;DHT22;12316;50.904;4.200;2022-09-19T07:05:39;13.10;99.90
24158;DHT22;12316;50.904;4.200;2022-09-19T07:08:08;13.00;99.90
24158;DHT22;12316;50.904;4.200;2022-09-19T07:10:34;13.00;99.90
24158;DHT22;12316;50.904;4.200;2022-09-19T07:13:02;13.00;99.90
24158;DHT22;12316;50.904;4.200;2022-09-19T07:15:32;13.10;99.90
24158;DHT22;12316;50.904;4.200;2022-09-19T07:17:58;13.10;99.90
24158;DHT22;12316;50.904;4.200;2022-09-19T07:20:25;13.20;99.90
24158;DHT22;12316;50.904;4.200;2022-09-19T07:23:11;13.20;99.90
24158;DHT22;12316;50.904;4.200;2022-09-19T07:25:39;13.20;99.90
24158;DHT22;12316;50.904;4.200;2022-09-19T07:28:07;13.30;99.90
24158;DHT22;12316;50.904;4.200;2022-09-19T07:30:34;13.40;99.90
24158;DHT22;12316;50.904;4.200;2022-09-19T07:33:02;13.40;99.90
24158;DHT22;12316;50.904;4.200;2022-09-19T07:35:30;13.50;99.90
24158;DHT22;12316;50.904;4.200;2022-09-19T07:37:56;13.70;99.90
24158;DHT22;12316;50.904;4.200;2022-09-19T07:40:22;13.90;99.90
24158;DHT22;12316;50.904;4.200;2022-09-19T07:42:48;14.10;99.90
24158;DHT22;12316;50.904;4.200;2022-09-19T07:45:16;14.30;99.90
24158;DHT22;12316;50.904;4.200;2022-09-19T07:47:46;14.60;99.90
24158;DHT22;12316;50.904;4.200;2022-09-19T07:50:17;14.80;99.90
24158;DHT22;12316;50.904;4.200;2022-09-19T07:52:44;14.70;99.90
24158;DHT22;12316;50.904;4.200;2022-09-19T07:55:14;14.90;99.90
24158;DHT22;12316;50.904;4.200;2022-09-19T07:57:53;14.90;99.90
24158;DHT22;12316;50.904;4.200;2022-09-19T08:00:27;15.00;99.90
24158;DHT22;12316;50.904;4.200;2022-09-19T08:03:05;15.00;99.90
24158;DHT22;12316;50.904;4.200;2022-09-19T08:05:35;15.00;99.90
24158;DHT22;12316;50.904;4.200;2022-09-19T08:08:06;15.20;99.90
24158;DHT22;12316;50.904;4.200;2022-09-19T08:10:33;15.30;99.90
24158;DHT22;12316;50.904;4.200;2022-09-19T08:13:03;15.50;99.90
24158;DHT22;12316;50.904;4.200;2022-09-19T08:15:30;15.50;99.90
24158;DHT22;12316;50.904;4.200;2022-09-19T08:20:26;15.70;99.90
24158;DHT22;12316;50.904;4.200;2022-09-19T08:22:56;15.70;99.90
24158;DHT22;12316;50.904;4.200;2022-09-19T08:25:23;15.70;99.90
24158;DHT22;12316;50.904;4.200;2022-09-19T08:27:49;15.80;99.90
24158;DHT22;12316;50.904;4.200;2022-09-19T08:30:17;15.80;99.90
24158;DHT22;12316;50.904;4.200;2022-09-19T08:32:47;15.90;99.90
24158;DHT22;12316;50.904;4.200;2022-09-19T08:35:14;16.00;99.90
24158;DHT22;12316;50.904;4.200;2022-09-19T08:37:41;16.10;99.90
24158;DHT22;12316;50.904;4.200;2022-09-19T08:40:09;16.30;99.90
24158;DHT22;12316;50.904;4.200;2022-09-19T08:51:14;16.90;99.90
24158;DHT22;12316;50.904;4.200;2022-09-19T08:53:44;16.90;99.90
24158;DHT22;12316;50.904;4.200;2022-09-19T08:56:12;16.90;99.90
24158;DHT22;12316;50.904;4.200;2022-09-19T08:58:46;16.90;99.90
24158;DHT22;12316;50.904;4.200;2022-09-19T09:01:14;16.90;99.90
24158;DHT22;12316;50.904;4.200;2022-09-19T09:04:17;17.10;99.90
24158;DHT22;12316;50.904;4.200;2022-09-19T09:18:14;18.00;99.90
24158;DHT22;12316;50.904;4.200;2022-09-19T09:23:44;18.20;99.90
24158;DHT22;12316;50.904;4.200;2022-09-19T09:26:21;18.20;99.90
24158;DHT22;12316;50.904;4.200;2022-09-19T09:29:03;18.00;99.90
24158;DHT22;12316;50.904;4.200;2022-09-19T09:31:40;17.80;99.90
24158;DHT22;12316;50.904;4.200;2022-09-19T09:34:19;17.60;99.90
24158;DHT22;12316;50.904;4.200;2022-09-19T09:37:02;17.50;99.90
24158;DHT22;12316;50.904;4.200;2022-09-19T09:39:41;17.40;99.90
24158;DHT22;12316;50.904;4.200;2022-09-19T09:42:47;17.30;99.90
24158;DHT22;12316;50.904;4.200;2022-09-19T09:45:16;17.40;99.90
24158;DHT22;12316;50.904;4.200;2022-09-19T09:50:59;17.70;99.90
24158;DHT22;12316;50.904;4.200;2022-09-19T09:53:36;17.70;99.90
24158;DHT22;12316;50.904;4.200;2022-09-19T09:57:11;17.70;99.90
24158;DHT22;12316;50.904;4.200;2022-09-19T09:59:53;17.80;99.90
24158;DHT22;12316;50.904;4.200;2022-09-19T10:05:19;18.10;99.90
24158;DHT22;12316;50.904;4.200;2022-09-19T10:07:56;18.20;99.90
24158;DHT22;12316;50.904;4.200;2022-09-19T10:10:28;18.50;99.90
24158;DHT22;12316;50.904;4.200;2022-09-19T10:12:57;18.50;99.90
24158;DHT22;12316;50.904;4.200;2022-09-19T10:15:25;18.70;99.90
24158;DHT22;12316;50.904;4.200;2022-09-19T10:18:02;18.70;99.90
24158;DHT22;12316;50.904;4.200;2022-09-19T10:20:45;19.00;99.90
24158;DHT22;12316;50.904;4.200;2022-09-19T10:23:19;19.00;99.90
24158;DHT22;12316;50.904;4.200;2022-09-19T10:25:58;18.80;99.90
24158;DHT22;12316;50.904;4.200;2022-09-19T10:28:53;18.90;99.90
24158;DHT22;12316;50.904;4.200;2022-09-19T10:31:34;18.40;99.90
24158;DHT22;12316;50.904;4.200;2022-09-19T10:34:07;18.00;99.90
24158;DHT22;12316;50.904;4.200;2022-09-19T10:36:45;17.60;99.90
24158;DHT22;12316;50.904;4.200;2022-09-19T10:39:14;17.30;99.90
24158;DHT22;12316;50.904;4.200;2022-09-19T10:41:41;17.00;99.90
24158;DHT22;12316;50.904;4.200;2022-09-19T10:44:19;17.00;99.90
24158;DHT22;12316;50.904;4.200;2022-09-19T10:47:09;17.10;99.90
24158;DHT22;12316;50.904;4.200;2022-09-19T10:49:47;17.20;99.90
24158;DHT22;12316;50.904;4.200;2022-09-19T10:52:26;17.10;99.90
24158;DHT22;12316;50.904;4.200;2022-09-19T10:54:59;17.10;99.90
24158;DHT22;12316;50.904;4.200;2022-09-19T10:59:59;17.00;99.90
24158;DHT22;12316;50.904;4.200;2022-09-19T11:02:29;16.80;99.90
24158;DHT22;12316;50.904;4.200;2022-09-19T11:07:23;16.60;99.90
24158;DHT22;12316;50.904;4.200;2022-09-19T11:09:52;16.80;99.90
24158;DHT22;12316;50.904;4.200;2022-09-19T11:12:25;16.90;99.90
24158;DHT22;12316;50.904;4.200;2022-09-19T11:14:51;17.10;99.90
24158;DHT22;12316;50.904;4.200;2022-09-19T11:17:48;17.40;99.90
24158;DHT22;12316;50.904;4.200;2022-09-19T11:31:50;17.00;99.90
24158;DHT22;12316;50.904;4.200;2022-09-19T11:34:49;17.00;99.90
24158;DHT22;12316;50.904;4.200;2022-09-19T11:37:26;17.00;99.90
24158;DHT22;12316;50.904;4.200;2022-09-19T11:47:49;17.90;99.90
24158;DHT22;12316;50.904;4.200;2022-09-19T11:50:30;18.10;99.90
24158;DHT22;12316;50.904;4.200;2022-09-19T11:53:22;18.10;99.90
24158;DHT22;12316;50.904;4.200;2022-09-19T11:59:21;18.60;99.90
24158;DHT22;12316;50.904;4.200;2022-09-19T12:02:13;18.70;99.90
24158;DHT22;12316;50.904;4.200;2022-09-19T12:05:20;18.40;99.90
24158;DHT22;12316;50.904;4.200;2022-09-19T12:10:28;17.80;99.90
24158;DHT22;12316;50.904;4.200;2022-09-19T12:13:13;18.00;99.90
24158;DHT22;12316;50.904;4.200;2022-09-19T12:15:46;17.70;99.90
24158;DHT22;12316;50.904;4.200;2022-09-19T12:18:30;17.80;99.90
24158;DHT22;12316;50.904;4.200;2022-09-19T12:21:00;17.80;99.90
24158;DHT22;12316;50.904;4.200;2022-09-19T12:23:39;17.80;99.90
24158;DHT22;12316;50.904;4.200;2022-09-19T12:26:34;17.60;99.90
24158;DHT22;12316;50.904;4.200;2022-09-19T12:31:34;17.50;99.90
24158;DHT22;12316;50.904;4.200;2022-09-19T12:34:09;17.50;99.90
24158;DHT22;12316;50.904;4.200;2022-09-19T12:37:02;17.50;99.90
24158;DHT22;12316;50.904;4.200;2022-09-19T12:39:55;17.60;99.90
24158;DHT22;12316;50.904;4.200;2022-09-19T12:43:07;18.00;99.90
24158;DHT22;12316;50.904;4.200;2022-09-19T12:45:15;18.10;99.90
24158;DHT22;12316;50.904;4.200;2022-09-19T12:50:27;18.40;99.90
24158;DHT22;12316;50.904;4.200;2022-09-19T12:55:29;18.20;99.30
24158;DHT22;12316;50.904;4.200;2022-09-19T12:58:15;18.00;99.10
24158;DHT22;12316;50.904;4.200;2022-09-19T13:00:43;17.90;99.70
24158;DHT22;12316;50.904;4.200;2022-09-19T13:03:20;17.90;99.90
24158;DHT22;12316;50.904;4.200;2022-09-19T13:05:56;17.90;99.90
24158;DHT22;12316;50.904;4.200;2022-09-19T13:08:35;17.70;98.70
24158;DHT22;12316;50.904;4.200;2022-09-19T13:13:55;17.60;97.90
24158;DHT22;12316;50.904;4.200;2022-09-19T13:16:32;17.50;98.40
24158;DHT22;12316;50.904;4.200;2022-09-19T13:18:59;17.50;99.50
24158;DHT22;12316;50.904;4.200;2022-09-19T13:21:46;17.70;99.90
24158;DHT22;12316;50.904;4.200;2022-09-19T13:27:07;18.00;99.90
24158;DHT22;12316;50.904;4.200;2022-09-19T13:32:02;18.50;99.90
24158;DHT22;12316;50.904;4.200;2022-09-19T13:34:44;18.60;99.60
24158;DHT22;12316;50.904;4.200;2022-09-19T13:45:39;18.30;98.70
24158;DHT22;12316;50.904;4.200;2022-09-19T13:50:51;18.10;99.00
24158;DHT22;12316;50.904;4.200;2022-09-19T13:56:00;17.90;98.80
24158;DHT22;12316;50.904;4.200;2022-09-19T13:58:36;17.90;98.80
24158;DHT22;12316;50.904;4.200;2022-09-19T14:01:24;17.60;98.10
24158;DHT22;12316;50.904;4.200;2022-09-19T14:03:59;17.60;97.80
24158;DHT22;12316;50.904;4.200;2022-09-19T14:06:44;17.50;98.10
24158;DHT22;12316;50.904;4.200;2022-09-19T14:11:53;17.50;98.60
24158;DHT22;12316;50.904;4.200;2022-09-19T14:19:50;17.70;98.30
24158;DHT22;12316;50.904;4.200;2022-09-19T14:22:37;18.00;98.20
24158;DHT22;12316;50.904;4.200;2022-09-19T14:25:24;18.40;97.90
24158;DHT22;12316;50.904;4.200;2022-09-19T14:30:36;18.70;96.80
24158;DHT22;12316;50.904;4.200;2022-09-19T14:36:00;18.50;96.00
24158;DHT22;12316;50.904;4.200;2022-09-19T14:38:31;18.20;94.80
24158;DHT22;12316;50.904;4.200;2022-09-19T14:49:23;17.70;96.80
24158;DHT22;12316;50.904;4.200;2022-09-19T14:52:02;17.80;95.00
24158;DHT22;12316;50.904;4.200;2022-09-19T14:54:37;18.00;95.20
24158;DHT22;12316;50.904;4.200;2022-09-19T14:57:17;18.00;93.30
24158;DHT22;12316;50.904;4.200;2022-09-19T14:59:46;17.90;93.20
24158;DHT22;12316;50.904;4.200;2022-09-19T15:02:31;17.80;93.70
24158;DHT22;12316;50.904;4.200;2022-09-19T15:05:04;17.80;94.10
24158;DHT22;12316;50.904;4.200;2022-09-19T15:07:38;17.70;93.10
24158;DHT22;12316;50.904;4.200;2022-09-19T15:10:31;17.70;93.70
24158;DHT22;12316;50.904;4.200;2022-09-19T15:13:18;17.70;93.10
24158;DHT22;12316;50.904;4.200;2022-09-19T15:15:51;17.80;93.40
24158;DHT22;12316;50.904;4.200;2022-09-19T15:18:22;17.80;93.00
24158;DHT22;12316;50.904;4.200;2022-09-19T15:20:57;17.80;93.10
24158;DHT22;12316;50.904;4.200;2022-09-19T15:23:26;17.70;93.30
24158;DHT22;12316;50.904;4.200;2022-09-19T15:26:00;17.70;93.60
24158;DHT22;12316;50.904;4.200;2022-09-19T15:28:28;17.70;94.20
24158;DHT22;12316;50.904;4.200;2022-09-19T15:30:56;17.70;94.90
24158;DHT22;12316;50.904;4.200;2022-09-19T15:33:28;17.70;94.60
24158;DHT22;12316;50.904;4.200;2022-09-19T15:35:55;17.70;94.60
24158;DHT22;12316;50.904;4.200;2022-09-19T15:38:28;17.70;93.60
24158;DHT22;12316;50.904;4.200;2022-09-19T15:40:55;17.70;94.50
24158;DHT22;12316;50.904;4.200;2022-09-19T15:43:23;17.60;94.40
24158;DHT22;12316;50.904;4.200;2022-09-19T15:45:52;17.60;94.90
24158;DHT22;12316;50.904;4.200;2022-09-19T15:48:32;17.60;94.40
24158;DHT22;12316;50.904;4.200;2022-09-19T15:51:02;17.60;95.00
24158;DHT22;12316;50.904;4.200;2022-09-19T15:53:34;17.60;94.30
24158;DHT22;12316;50.904;4.200;2022-09-19T15:56:19;17.40;93.80
24158;DHT22;12316;50.904;4.200;2022-09-19T15:58:51;17.40;93.70
24158;DHT22;12316;50.904;4.200;2022-09-19T16:01:21;17.40;94.30
24158;DHT22;12316;50.904;4.200;2022-09-19T16:04:12;17.50;94.80
24158;DHT22;12316;50.904;4.200;2022-09-19T16:12:02;17.40;94.90
24158;DHT22;12316;50.904;4.200;2022-09-19T16:14:38;17.50;95.40
24158;DHT22;12316;50.904;4.200;2022-09-19T16:17:13;17.60;95.70
24158;DHT22;12316;50.904;4.200;2022-09-19T16:19:45;17.70;95.60
24158;DHT22;12316;50.904;4.200;2022-09-19T16:22:14;17.60;95.40
24158;DHT22;12316;50.904;4.200;2022-09-19T16:24:49;17.70;96.40
24158;DHT22;12316;50.904;4.200;2022-09-19T16:27:21;17.70;96.10
24158;DHT22;12316;50.904;4.200;2022-09-19T16:29:48;17.70;96.40
24158;DHT22;12316;50.904;4.200;2022-09-19T16:32:16;17.50;95.90
24158;DHT22;12316;50.904;4.200;2022-09-19T16:34:44;17.40;95.70
24158;DHT22;12316;50.904;4.200;2022-09-19T16:39:49;17.20;96.30
24158;DHT22;12316;50.904;4.200;2022-09-19T16:44:46;17.20;97.10
24158;DHT22;12316;50.904;4.200;2022-09-19T16:47:21;17.10;96.90
24158;DHT22;12316;50.904;4.200;2022-09-19T16:49:49;17.10;97.00
24158;DHT22;12316;50.904;4.200;2022-09-19T16:52:28;17.10;97.00
24158;DHT22;12316;50.904;4.200;2022-09-19T16:54:57;17.10;97.40
24158;DHT22;12316;50.904;4.200;2022-09-19T16:57:24;17.00;96.80
24158;DHT22;12316;50.904;4.200;2022-09-19T16:59:51;16.90;97.10
24158;DHT22;12316;50.904;4.200;2022-09-19T17:02:25;17.00;97.50
24158;DHT22;12316;50.904;4.200;2022-09-19T17:04:52;17.00;97.70
24158;DHT22;12316;50.904;4.200;2022-09-19T17:07:18;16.90;97.70
24158;DHT22;12316;50.904;4.200;2022-09-19T17:09:46;16.90;97.60
24158;DHT22;12316;50.904;4.200;2022-09-19T17:12:15;16.80;97.80
24158;DHT22;12316;50.904;4.200;2022-09-19T17:14:42;16.90;97.80
24158;DHT22;12316;50.904;4.200;2022-09-19T17:17:10;16.90;97.80
24158;DHT22;12316;50.904;4.200;2022-09-19T17:19:38;16.80;98.00
24158;DHT22;12316;50.904;4.200;2022-09-19T17:22:03;16.80;97.90
24158;DHT22;12316;50.904;4.200;2022-09-19T17:24:29;16.70;98.10
24158;DHT22;12316;50.904;4.200;2022-09-19T17:26:55;16.70;98.30
24158;DHT22;12316;50.904;4.200;2022-09-19T17:29:20;16.70;98.50
24158;DHT22;12316;50.904;4.200;2022-09-19T17:31:46;16.70;98.50
24158;DHT22;12316;50.904;4.200;2022-09-19T17:34:13;16.60;98.50
24158;DHT22;12316;50.904;4.200;2022-09-19T17:36:40;16.60;98.50
24158;DHT22;12316;50.904;4.200;2022-09-19T17:39:05;16.50;98.60
24158;DHT22;12316;50.904;4.200;2022-09-19T17:41:31;16.50;98.90
24158;DHT22;12316;50.904;4.200;2022-09-19T17:44:00;16.50;99.90
24158;DHT22;12316;50.904;4.200;2022-09-19T17:46:26;16.50;99.90
24158;DHT22;12316;50.904;4.200;2022-09-19T17:48:51;16.50;99.90
24158;DHT22;12316;50.904;4.200;2022-09-19T17:51:18;16.40;99.90
24158;DHT22;12316;50.904;4.200;2022-09-19T17:53:45;16.40;99.90
24158;DHT22;12316;50.904;4.200;2022-09-19T17:56:23;16.40;99.90
24158;DHT22;12316;50.904;4.200;2022-09-19T17:59:00;16.40;99.90
24158;DHT22;12316;50.904;4.200;2022-09-19T18:01:28;16.30;99.90
24158;DHT22;12316;50.904;4.200;2022-09-19T18:04:13;16.20;99.90
24158;DHT22;12316;50.904;4.200;2022-09-19T18:06:39;16.10;99.90
24158;DHT22;12316;50.904;4.200;2022-09-19T18:09:07;16.00;99.90
24158;DHT22;12316;50.904;4.200;2022-09-19T18:11:33;16.10;99.90
24158;DHT22;12316;50.904;4.200;2022-09-19T18:13:59;16.10;99.90
24158;DHT22;12316;50.904;4.200;2022-09-19T18:16:32;15.90;99.90
24158;DHT22;12316;50.904;4.200;2022-09-19T18:19:00;15.90;99.90
24158;DHT22;12316;50.904;4.200;2022-09-19T18:21:26;15.90;99.90
24158;DHT22;12316;50.904;4.200;2022-09-19T18:23:53;15.80;99.90
24158;DHT22;12316;50.904;4.200;2022-09-19T18:26:20;15.80;99.90
24158;DHT22;12316;50.904;4.200;2022-09-19T18:28:51;15.70;99.90
24158;DHT22;12316;50.904;4.200;2022-09-19T18:31:17;15.50;99.90
24158;DHT22;12316;50.904;4.200;2022-09-19T18:33:43;15.60;99.90
24158;DHT22;12316;50.904;4.200;2022-09-19T18:36:27;15.50;99.90
24158;DHT22;12316;50.904;4.200;2022-09-19T18:38:54;15.50;99.90
24158;DHT22;12316;50.904;4.200;2022-09-19T18:41:24;15.50;99.90
24158;DHT22;12316;50.904;4.200;2022-09-19T18:43:52;15.50;99.90
24158;DHT22;12316;50.904;4.200;2022-09-19T18:46:19;15.40;99.90
24158;DHT22;12316;50.904;4.200;2022-09-19T18:48:46;15.40;99.90